Aérodrome :
LOGIN :

S'inscrire | Disclaimer

   EN    FR    IT 

 










Légende :    VFR   VFR Marginal   IFR   IFR Intensif   IFR Très Intensif
Visi : 
Plafond : 
>= 8 km
>= 3000ft
5 à 8 km
1000 à 3000 ft
1500m à 5 km
500 à 1000 ft
800 à 1500m
200 à 500 ft
< 800m
< 200 ft
Symboles :   Orages  Brouillard  Fortes neiges  Fortes précipitations  Vent > 20 kt
SIGMETs :   Divers  Orages  Givrage  Turbulence  Onde Orograph.  Cendres Volcan.






- Altitude de l'aérodrome : 463 ft
- Code IATA : QAS


DAOI - Chlef Int.

DERNIER METAR :
  • 270200Z 27003KT 9999 FEW026 11/09 Q1021

METARs EXPIRÉS :
  • 270100Z 29002KT 9999 FEW026 12/10 Q1021
  • 270000Z 26005KT 9999 FEW026 12/10 Q1021

TAF TAF DAOI
Valide du 27 à 00h jusqu'au 28 à 00h UTC


262300Z 2700/2724 VRB02KT 9999 FEW026
PROB30
TEMPO 2702/2709 3000 BR SCT010
BECMG 2710/2713 28014KT
BECMG 2720/2723 VRB02KT



MET'MAP, la Météo Aéronautique d'un coup d'oeil ! - Copyright ORBIFLY Décembre 2007 - Disclaimer

ORBIFLY MET'MAP TEAM :

Programmation & Développement : Alexandra Zaïnal
Sur une idée originale de : Baudouin d'Aumeries
Assistance à la programmation : Marc-Olivier Méhu
Soutien technique & logistique : Manuel Goepfert

Contact : metmap@orbifly.com




SOURCES & CREDITS :

   NOAA